sensor_id;sensor_type;location;lat;lon;timestamp;P1;durP1;ratioP1;P2;durP2;ratioP2
61435;SDS011;47304;47.456;19.160;2024-01-11T00:00:20;63.50;;;33.60;;
61435;SDS011;47304;47.456;19.160;2024-01-11T00:02:48;67.90;;;33.30;;
61435;SDS011;47304;47.456;19.160;2024-01-11T00:05:17;71.40;;;35.50;;
61435;SDS011;47304;47.456;19.160;2024-01-11T00:07:45;71.80;;;34.80;;
61435;SDS011;47304;47.456;19.160;2024-01-11T00:10:13;73.50;;;35.90;;
61435;SDS011;47304;47.456;19.160;2024-01-11T00:12:41;64.20;;;32.40;;
61435;SDS011;47304;47.456;19.160;2024-01-11T00:15:10;60.60;;;31.70;;
61435;SDS011;47304;47.456;19.160;2024-01-11T00:17:38;61.70;;;32.60;;
61435;SDS011;47304;47.456;19.160;2024-01-11T00:20:07;70.80;;;34.80;;
61435;SDS011;47304;47.456;19.160;2024-01-11T00:22:36;72.40;;;36.00;;
61435;SDS011;47304;47.456;19.160;2024-01-11T00:25:05;71.30;;;33.80;;
61435;SDS011;47304;47.456;19.160;2024-01-11T00:27:34;74.40;;;36.70;;
61435;SDS011;47304;47.456;19.160;2024-01-11T00:30:02;64.00;;;33.50;;
61435;SDS011;47304;47.456;19.160;2024-01-11T00:32:32;66.00;;;34.20;;
61435;SDS011;47304;47.456;19.160;2024-01-11T00:35:01;74.40;;;35.30;;
61435;SDS011;47304;47.456;19.160;2024-01-11T00:37:30;76.00;;;36.70;;
61435;SDS011;47304;47.456;19.160;2024-01-11T00:39:58;78.70;;;36.50;;
61435;SDS011;47304;47.456;19.160;2024-01-11T00:42:26;80.90;;;39.00;;
61435;SDS011;47304;47.456;19.160;2024-01-11T00:44:54;85.60;;;40.20;;
61435;SDS011;47304;47.456;19.160;2024-01-11T00:47:22;69.90;;;35.70;;
61435;SDS011;47304;47.456;19.160;2024-01-11T00:49:50;80.50;;;38.10;;
61435;SDS011;47304;47.456;19.160;2024-01-11T00:52:19;74.80;;;37.10;;
61435;SDS011;47304;47.456;19.160;2024-01-11T00:54:47;72.10;;;37.10;;
61435;SDS011;47304;47.456;19.160;2024-01-11T00:57:15;73.00;;;37.40;;
61435;SDS011;47304;47.456;19.160;2024-01-11T00:59:44;78.60;;;36.00;;
61435;SDS011;47304;47.456;19.160;2024-01-11T01:02:12;69.10;;;34.80;;
61435;SDS011;47304;47.456;19.160;2024-01-11T01:04:40;79.80;;;36.40;;
61435;SDS011;47304;47.456;19.160;2024-01-11T01:07:09;74.30;;;34.60;;
61435;SDS011;47304;47.456;19.160;2024-01-11T01:09:37;73.50;;;36.40;;
61435;SDS011;47304;47.456;19.160;2024-01-11T01:12:06;67.60;;;33.30;;
61435;SDS011;47304;47.456;19.160;2024-01-11T01:14:34;67.40;;;33.30;;
61435;SDS011;47304;47.456;19.160;2024-01-11T01:17:02;66.30;;;34.10;;
61435;SDS011;47304;47.456;19.160;2024-01-11T01:19:31;66.30;;;33.00;;
61435;SDS011;47304;47.456;19.160;2024-01-11T01:21:59;62.90;;;32.10;;
61435;SDS011;47304;47.456;19.160;2024-01-11T01:24:28;70.20;;;35.50;;
61435;SDS011;47304;47.456;19.160;2024-01-11T01:26:57;66.80;;;34.70;;
61435;SDS011;47304;47.456;19.160;2024-01-11T01:29:25;65.90;;;32.90;;
61435;SDS011;47304;47.456;19.160;2024-01-11T01:31:53;70.10;;;34.70;;
61435;SDS011;47304;47.456;19.160;2024-01-11T01:34:21;57.60;;;29.60;;
61435;SDS011;47304;47.456;19.160;2024-01-11T01:36:49;55.20;;;27.20;;
61435;SDS011;47304;47.456;19.160;2024-01-11T01:39:17;59.40;;;30.40;;
61435;SDS011;47304;47.456;19.160;2024-01-11T01:41:45;57.40;;;30.00;;
61435;SDS011;47304;47.456;19.160;2024-01-11T01:44:14;59.10;;;29.80;;
61435;SDS011;47304;47.456;19.160;2024-01-11T01:46:42;57.10;;;30.30;;
61435;SDS011;47304;47.456;19.160;2024-01-11T01:49:10;64.40;;;31.70;;
61435;SDS011;47304;47.456;19.160;2024-01-11T01:51:40;59.10;;;29.70;;
61435;SDS011;47304;47.456;19.160;2024-01-11T01:54:08;59.90;;;30.20;;
61435;SDS011;47304;47.456;19.160;2024-01-11T01:56:37;62.70;;;30.70;;
61435;SDS011;47304;47.456;19.160;2024-01-11T01:59:05;63.70;;;30.10;;
61435;SDS011;47304;47.456;19.160;2024-01-11T02:01:34;57.20;;;26.80;;
61435;SDS011;47304;47.456;19.160;2024-01-11T02:04:03;62.80;;;30.70;;
61435;SDS011;47304;47.456;19.160;2024-01-11T02:06:32;59.90;;;28.50;;
61435;SDS011;47304;47.456;19.160;2024-01-11T02:09:02;47.60;;;25.90;;
61435;SDS011;47304;47.456;19.160;2024-01-11T02:11:32;63.00;;;30.20;;
61435;SDS011;47304;47.456;19.160;2024-01-11T02:14:01;60.90;;;29.60;;
61435;SDS011;47304;47.456;19.160;2024-01-11T02:16:30;50.30;;;24.90;;
61435;SDS011;47304;47.456;19.160;2024-01-11T02:18:58;58.10;;;29.60;;
61435;SDS011;47304;47.456;19.160;2024-01-11T02:21:27;64.90;;;30.00;;
61435;SDS011;47304;47.456;19.160;2024-01-11T02:24:01;54.40;;;25.30;;
61435;SDS011;47304;47.456;19.160;2024-01-11T02:26:31;54.40;;;26.80;;
61435;SDS011;47304;47.456;19.160;2024-01-11T02:29:00;50.20;;;24.50;;
61435;SDS011;47304;47.456;19.160;2024-01-11T02:31:28;56.30;;;27.20;;
61435;SDS011;47304;47.456;19.160;2024-01-11T02:33:57;55.10;;;28.20;;
61435;SDS011;47304;47.456;19.160;2024-01-11T02:36:25;48.90;;;24.70;;
61435;SDS011;47304;47.456;19.160;2024-01-11T02:38:54;54.10;;;26.70;;
61435;SDS011;47304;47.456;19.160;2024-01-11T02:41:22;52.40;;;27.40;;
61435;SDS011;47304;47.456;19.160;2024-01-11T02:43:52;49.20;;;26.80;;
61435;SDS011;47304;47.456;19.160;2024-01-11T02:46:22;57.10;;;29.60;;
61435;SDS011;47304;47.456;19.160;2024-01-11T02:48:50;49.60;;;25.40;;
61435;SDS011;47304;47.456;19.160;2024-01-11T02:51:18;52.30;;;25.90;;
61435;SDS011;47304;47.456;19.160;2024-01-11T02:53:47;47.60;;;24.80;;
61435;SDS011;47304;47.456;19.160;2024-01-11T02:56:15;51.40;;;25.10;;
61435;SDS011;47304;47.456;19.160;2024-01-11T02:58:44;50.00;;;26.30;;
61435;SDS011;47304;47.456;19.160;2024-01-11T03:01:12;64.90;;;27.40;;
61435;SDS011;47304;47.456;19.160;2024-01-11T03:03:40;47.00;;;23.40;;
61435;SDS011;47304;47.456;19.160;2024-01-11T03:06:08;45.80;;;25.10;;
61435;SDS011;47304;47.456;19.160;2024-01-11T03:08:37;48.40;;;25.40;;
61435;SDS011;47304;47.456;19.160;2024-01-11T03:11:05;48.30;;;24.20;;
61435;SDS011;47304;47.456;19.160;2024-01-11T03:13:33;49.00;;;23.30;;
61435;SDS011;47304;47.456;19.160;2024-01-11T03:16:01;50.40;;;24.90;;
61435;SDS011;47304;47.456;19.160;2024-01-11T03:18:30;50.30;;;26.80;;
61435;SDS011;47304;47.456;19.160;2024-01-11T03:20:59;41.80;;;21.20;;
61435;SDS011;47304;47.456;19.160;2024-01-11T03:23:27;50.60;;;25.70;;
61435;SDS011;47304;47.456;19.160;2024-01-11T03:25:55;47.90;;;23.90;;
61435;SDS011;47304;47.456;19.160;2024-01-11T03:28:24;49.60;;;25.30;;
61435;SDS011;47304;47.456;19.160;2024-01-11T03:30:52;53.80;;;24.10;;
61435;SDS011;47304;47.456;19.160;2024-01-11T03:33:20;45.40;;;20.90;;
61435;SDS011;47304;47.456;19.160;2024-01-11T03:35:49;52.70;;;25.40;;
61435;SDS011;47304;47.456;19.160;2024-01-11T03:38:17;46.80;;;23.50;;
61435;SDS011;47304;47.456;19.160;2024-01-11T03:40:45;44.90;;;25.20;;
61435;SDS011;47304;47.456;19.160;2024-01-11T03:43:13;50.10;;;24.60;;
61435;SDS011;47304;47.456;19.160;2024-01-11T03:45:45;44.70;;;22.60;;
61435;SDS011;47304;47.456;19.160;2024-01-11T03:48:13;46.10;;;23.90;;
61435;SDS011;47304;47.456;19.160;2024-01-11T03:50:41;47.00;;;24.60;;
61435;SDS011;47304;47.456;19.160;2024-01-11T03:53:10;44.70;;;22.90;;
61435;SDS011;47304;47.456;19.160;2024-01-11T03:55:38;50.50;;;25.30;;
61435;SDS011;47304;47.456;19.160;2024-01-11T03:58:06;50.00;;;25.10;;
61435;SDS011;47304;47.456;19.160;2024-01-11T04:00:34;50.10;;;25.40;;
61435;SDS011;47304;47.456;19.160;2024-01-11T04:03:03;47.20;;;22.50;;
61435;SDS011;47304;47.456;19.160;2024-01-11T04:05:32;54.00;;;25.80;;
61435;SDS011;47304;47.456;19.160;2024-01-11T04:08:02;49.80;;;24.40;;
61435;SDS011;47304;47.456;19.160;2024-01-11T04:10:31;43.90;;;22.70;;
61435;SDS011;47304;47.456;19.160;2024-01-11T04:13:00;46.10;;;23.80;;
61435;SDS011;47304;47.456;19.160;2024-01-11T04:15:28;45.70;;;24.00;;
61435;SDS011;47304;47.456;19.160;2024-01-11T04:17:56;54.00;;;24.20;;
61435;SDS011;47304;47.456;19.160;2024-01-11T04:20:25;42.40;;;22.20;;
61435;SDS011;47304;47.456;19.160;2024-01-11T04:22:53;48.00;;;23.00;;
61435;SDS011;47304;47.456;19.160;2024-01-11T04:25:21;46.30;;;22.90;;
61435;SDS011;47304;47.456;19.160;2024-01-11T04:27:50;46.40;;;21.90;;
61435;SDS011;47304;47.456;19.160;2024-01-11T04:30:18;39.50;;;21.30;;
61435;SDS011;47304;47.456;19.160;2024-01-11T04:32:47;43.30;;;22.60;;
61435;SDS011;47304;47.456;19.160;2024-01-11T04:35:15;45.50;;;21.50;;
61435;SDS011;47304;47.456;19.160;2024-01-11T04:37:43;46.40;;;24.30;;
61435;SDS011;47304;47.456;19.160;2024-01-11T04:40:11;44.70;;;22.90;;
61435;SDS011;47304;47.456;19.160;2024-01-11T04:42:40;41.30;;;19.70;;
61435;SDS011;47304;47.456;19.160;2024-01-11T04:45:09;39.20;;;20.40;;
61435;SDS011;47304;47.456;19.160;2024-01-11T04:47:37;46.80;;;23.70;;
61435;SDS011;47304;47.456;19.160;2024-01-11T04:50:06;42.50;;;20.90;;
61435;SDS011;47304;47.456;19.160;2024-01-11T04:52:35;50.50;;;22.40;;
61435;SDS011;47304;47.456;19.160;2024-01-11T04:55:04;44.50;;;22.70;;
61435;SDS011;47304;47.456;19.160;2024-01-11T04:57:32;43.50;;;22.20;;
61435;SDS011;47304;47.456;19.160;2024-01-11T05:00:00;44.10;;;21.40;;
61435;SDS011;47304;47.456;19.160;2024-01-11T05:02:29;39.20;;;20.00;;
61435;SDS011;47304;47.456;19.160;2024-01-11T05:04:57;44.70;;;22.20;;
61435;SDS011;47304;47.456;19.160;2024-01-11T05:07:25;38.60;;;20.20;;
61435;SDS011;47304;47.456;19.160;2024-01-11T05:09:55;35.20;;;19.40;;
61435;SDS011;47304;47.456;19.160;2024-01-11T05:12:23;45.70;;;19.70;;
61435;SDS011;47304;47.456;19.160;2024-01-11T05:14:51;38.20;;;19.10;;
61435;SDS011;47304;47.456;19.160;2024-01-11T05:17:19;42.20;;;21.40;;
61435;SDS011;47304;47.456;19.160;2024-01-11T05:19:48;44.70;;;22.30;;
61435;SDS011;47304;47.456;19.160;2024-01-11T05:22:16;50.00;;;23.80;;
61435;SDS011;47304;47.456;19.160;2024-01-11T05:24:44;41.20;;;20.20;;
61435;SDS011;47304;47.456;19.160;2024-01-11T05:27:12;41.00;;;19.40;;
61435;SDS011;47304;47.456;19.160;2024-01-11T05:29:41;38.90;;;19.70;;
61435;SDS011;47304;47.456;19.160;2024-01-11T05:32:09;39.30;;;20.10;;
61435;SDS011;47304;47.456;19.160;2024-01-11T05:34:37;41.90;;;21.30;;
61435;SDS011;47304;47.456;19.160;2024-01-11T05:37:05;42.20;;;20.20;;
61435;SDS011;47304;47.456;19.160;2024-01-11T05:39:34;38.30;;;19.30;;
61435;SDS011;47304;47.456;19.160;2024-01-11T05:42:02;36.30;;;19.80;;
61435;SDS011;47304;47.456;19.160;2024-01-11T05:44:30;46.80;;;21.30;;
61435;SDS011;47304;47.456;19.160;2024-01-11T05:46:58;37.20;;;19.70;;
61435;SDS011;47304;47.456;19.160;2024-01-11T05:49:27;46.20;;;21.80;;
61435;SDS011;47304;47.456;19.160;2024-01-11T05:51:55;46.10;;;22.20;;
61435;SDS011;47304;47.456;19.160;2024-01-11T05:54:23;46.40;;;21.70;;
61435;SDS011;47304;47.456;19.160;2024-01-11T05:56:51;41.00;;;20.70;;
61435;SDS011;47304;47.456;19.160;2024-01-11T05:59:20;46.50;;;23.00;;
61435;SDS011;47304;47.456;19.160;2024-01-11T06:01:48;39.00;;;21.10;;
61435;SDS011;47304;47.456;19.160;2024-01-11T06:04:16;39.90;;;18.60;;
61435;SDS011;47304;47.456;19.160;2024-01-11T06:06:44;47.60;;;24.10;;
61435;SDS011;47304;47.456;19.160;2024-01-11T06:09:13;38.40;;;20.20;;
61435;SDS011;47304;47.456;19.160;2024-01-11T06:11:41;40.80;;;21.70;;
61435;SDS011;47304;47.456;19.160;2024-01-11T06:14:09;45.40;;;24.20;;
61435;SDS011;47304;47.456;19.160;2024-01-11T06:16:37;45.70;;;23.00;;
61435;SDS011;47304;47.456;19.160;2024-01-11T06:19:06;39.70;;;20.60;;
61435;SDS011;47304;47.456;19.160;2024-01-11T06:21:35;45.90;;;21.30;;
61435;SDS011;47304;47.456;19.160;2024-01-11T06:24:03;41.50;;;21.40;;
61435;SDS011;47304;47.456;19.160;2024-01-11T06:26:31;52.40;;;23.50;;
61435;SDS011;47304;47.456;19.160;2024-01-11T06:29:00;39.60;;;20.40;;
61435;SDS011;47304;47.456;19.160;2024-01-11T06:31:28;38.90;;;21.10;;
61435;SDS011;47304;47.456;19.160;2024-01-11T06:33:56;41.10;;;21.30;;
61435;SDS011;47304;47.456;19.160;2024-01-11T06:36:25;45.70;;;21.20;;
61435;SDS011;47304;47.456;19.160;2024-01-11T06:38:53;46.30;;;21.50;;
61435;SDS011;47304;47.456;19.160;2024-01-11T06:41:22;45.30;;;23.70;;
61435;SDS011;47304;47.456;19.160;2024-01-11T06:43:50;47.60;;;24.30;;
61435;SDS011;47304;47.456;19.160;2024-01-11T06:46:20;49.70;;;25.00;;
61435;SDS011;47304;47.456;19.160;2024-01-11T06:48:49;55.70;;;27.40;;
61435;SDS011;47304;47.456;19.160;2024-01-11T06:51:20;59.00;;;26.00;;
61435;SDS011;47304;47.456;19.160;2024-01-11T06:53:48;53.30;;;24.90;;
61435;SDS011;47304;47.456;19.160;2024-01-11T06:56:17;57.00;;;28.20;;
61435;SDS011;47304;47.456;19.160;2024-01-11T06:58:46;61.40;;;27.00;;
61435;SDS011;47304;47.456;19.160;2024-01-11T07:01:14;50.60;;;26.10;;
61435;SDS011;47304;47.456;19.160;2024-01-11T07:03:43;50.80;;;26.10;;
61435;SDS011;47304;47.456;19.160;2024-01-11T07:06:12;53.50;;;27.40;;
61435;SDS011;47304;47.456;19.160;2024-01-11T07:08:40;46.70;;;24.20;;
61435;SDS011;47304;47.456;19.160;2024-01-11T07:11:09;56.50;;;25.60;;
61435;SDS011;47304;47.456;19.160;2024-01-11T07:13:37;55.20;;;25.70;;
61435;SDS011;47304;47.456;19.160;2024-01-11T07:16:05;51.00;;;26.30;;
61435;SDS011;47304;47.456;19.160;2024-01-11T07:18:33;60.30;;;29.40;;
61435;SDS011;47304;47.456;19.160;2024-01-11T07:21:02;63.80;;;29.30;;
61435;SDS011;47304;47.456;19.160;2024-01-11T07:23:30;51.80;;;27.40;;
61435;SDS011;47304;47.456;19.160;2024-01-11T07:25:58;50.40;;;25.70;;
61435;SDS011;47304;47.456;19.160;2024-01-11T07:28:27;61.80;;;33.40;;
61435;SDS011;47304;47.456;19.160;2024-01-11T07:30:55;65.30;;;34.60;;
61435;SDS011;47304;47.456;19.160;2024-01-11T07:33:23;80.10;;;36.70;;
61435;SDS011;47304;47.456;19.160;2024-01-11T07:35:51;56.90;;;32.10;;
61435;SDS011;47304;47.456;19.160;2024-01-11T07:38:19;66.30;;;34.40;;
61435;SDS011;47304;47.456;19.160;2024-01-11T07:40:47;68.80;;;35.60;;
61435;SDS011;47304;47.456;19.160;2024-01-11T07:43:15;88.00;;;41.40;;
61435;SDS011;47304;47.456;19.160;2024-01-11T07:45:44;80.30;;;38.50;;
61435;SDS011;47304;47.456;19.160;2024-01-11T07:48:12;79.70;;;39.80;;
61435;SDS011;47304;47.456;19.160;2024-01-11T07:50:40;60.30;;;32.70;;
61435;SDS011;47304;47.456;19.160;2024-01-11T07:53:09;68.40;;;36.40;;
61435;SDS011;47304;47.456;19.160;2024-01-11T07:55:37;69.70;;;37.90;;
61435;SDS011;47304;47.456;19.160;2024-01-11T07:58:05;62.90;;;34.20;;
61435;SDS011;47304;47.456;19.160;2024-01-11T08:00:33;76.50;;;38.80;;
61435;SDS011;47304;47.456;19.160;2024-01-11T08:03:02;79.10;;;36.30;;
61435;SDS011;47304;47.456;19.160;2024-01-11T08:05:31;73.70;;;38.90;;
61435;SDS011;47304;47.456;19.160;2024-01-11T08:07:59;77.60;;;38.80;;
61435;SDS011;47304;47.456;19.160;2024-01-11T08:10:27;70.60;;;37.40;;
61435;SDS011;47304;47.456;19.160;2024-01-11T08:12:55;66.00;;;35.70;;
61435;SDS011;47304;47.456;19.160;2024-01-11T08:15:24;74.80;;;38.60;;
61435;SDS011;47304;47.456;19.160;2024-01-11T08:17:52;76.50;;;40.10;;
61435;SDS011;47304;47.456;19.160;2024-01-11T08:20:21;89.00;;;43.80;;
61435;SDS011;47304;47.456;19.160;2024-01-11T08:22:49;70.30;;;37.10;;
61435;SDS011;47304;47.456;19.160;2024-01-11T08:25:17;66.80;;;35.60;;
61435;SDS011;47304;47.456;19.160;2024-01-11T08:27:45;66.40;;;33.70;;
61435;SDS011;47304;47.456;19.160;2024-01-11T08:30:14;72.70;;;38.50;;
61435;SDS011;47304;47.456;19.160;2024-01-11T08:32:42;102.10;;;49.00;;
61435;SDS011;47304;47.456;19.160;2024-01-11T08:35:10;63.60;;;33.60;;
61435;SDS011;47304;47.456;19.160;2024-01-11T08:37:39;64.50;;;33.80;;
61435;SDS011;47304;47.456;19.160;2024-01-11T08:40:08;56.10;;;30.00;;
61435;SDS011;47304;47.456;19.160;2024-01-11T08:42:38;61.20;;;31.40;;
61435;SDS011;47304;47.456;19.160;2024-01-11T08:45:06;69.60;;;37.00;;
61435;SDS011;47304;47.456;19.160;2024-01-11T08:47:35;53.90;;;28.70;;
61435;SDS011;47304;47.456;19.160;2024-01-11T08:50:04;89.60;;;42.40;;
61435;SDS011;47304;47.456;19.160;2024-01-11T08:52:33;66.70;;;33.90;;
61435;SDS011;47304;47.456;19.160;2024-01-11T08:55:01;74.70;;;38.90;;
61435;SDS011;47304;47.456;19.160;2024-01-11T08:57:30;88.20;;;42.80;;
61435;SDS011;47304;47.456;19.160;2024-01-11T08:59:59;78.40;;;38.60;;
61435;SDS011;47304;47.456;19.160;2024-01-11T09:02:27;60.10;;;30.50;;
61435;SDS011;47304;47.456;19.160;2024-01-11T09:04:55;61.70;;;33.20;;
61435;SDS011;47304;47.456;19.160;2024-01-11T09:07:24;57.60;;;28.20;;
61435;SDS011;47304;47.456;19.160;2024-01-11T09:09:52;57.30;;;30.30;;
61435;SDS011;47304;47.456;19.160;2024-01-11T09:12:20;58.20;;;31.10;;
61435;SDS011;47304;47.456;19.160;2024-01-11T09:14:48;67.10;;;35.90;;
61435;SDS011;47304;47.456;19.160;2024-01-11T09:17:17;62.90;;;33.30;;
61435;SDS011;47304;47.456;19.160;2024-01-11T09:19:45;64.10;;;33.70;;
61435;SDS011;47304;47.456;19.160;2024-01-11T09:22:13;63.20;;;34.50;;
61435;SDS011;47304;47.456;19.160;2024-01-11T09:24:42;68.00;;;33.10;;
61435;SDS011;47304;47.456;19.160;2024-01-11T09:27:10;59.20;;;32.60;;
61435;SDS011;47304;47.456;19.160;2024-01-11T09:29:43;55.40;;;31.80;;
61435;SDS011;47304;47.456;19.160;2024-01-11T09:32:11;61.10;;;32.00;;
61435;SDS011;47304;47.456;19.160;2024-01-11T09:34:40;65.50;;;35.50;;
61435;SDS011;47304;47.456;19.160;2024-01-11T09:37:08;64.70;;;34.70;;
61435;SDS011;47304;47.456;19.160;2024-01-11T09:39:36;69.60;;;35.20;;
61435;SDS011;47304;47.456;19.160;2024-01-11T09:42:06;59.90;;;34.00;;
61435;SDS011;47304;47.456;19.160;2024-01-11T09:44:34;59.60;;;32.90;;
61435;SDS011;47304;47.456;19.160;2024-01-11T09:47:04;51.10;;;28.40;;
61435;SDS011;47304;47.456;19.160;2024-01-11T09:49:34;41.00;;;24.10;;
61435;SDS011;47304;47.456;19.160;2024-01-11T09:52:04;39.70;;;22.60;;
61435;SDS011;47304;47.456;19.160;2024-01-11T09:54:33;41.10;;;22.90;;
61435;SDS011;47304;47.456;19.160;2024-01-11T09:57:02;35.50;;;20.40;;
61435;SDS011;47304;47.456;19.160;2024-01-11T09:59:33;31.80;;;19.90;;
61435;SDS011;47304;47.456;19.160;2024-01-11T10:02:01;27.90;;;18.40;;
61435;SDS011;47304;47.456;19.160;2024-01-11T10:04:30;30.20;;;17.80;;
61435;SDS011;47304;47.456;19.160;2024-01-11T10:06:59;32.00;;;19.10;;
61435;SDS011;47304;47.456;19.160;2024-01-11T10:09:30;28.20;;;16.40;;
61435;SDS011;47304;47.456;19.160;2024-01-11T10:11:58;32.50;;;20.30;;
61435;SDS011;47304;47.456;19.160;2024-01-11T10:14:26;30.00;;;17.30;;
61435;SDS011;47304;47.456;19.160;2024-01-11T10:16:55;24.60;;;14.10;;
61435;SDS011;47304;47.456;19.160;2024-01-11T10:19:23;20.30;;;12.40;;
61435;SDS011;47304;47.456;19.160;2024-01-11T10:21:52;19.90;;;11.10;;
61435;SDS011;47304;47.456;19.160;2024-01-11T10:24:20;21.10;;;12.50;;
61435;SDS011;47304;47.456;19.160;2024-01-11T10:26:48;20.90;;;11.70;;
61435;SDS011;47304;47.456;19.160;2024-01-11T10:29:16;20.40;;;12.20;;
61435;SDS011;47304;47.456;19.160;2024-01-11T10:31:44;22.10;;;12.30;;
61435;SDS011;47304;47.456;19.160;2024-01-11T10:34:12;16.80;;;9.40;;
61435;SDS011;47304;47.456;19.160;2024-01-11T10:36:41;17.10;;;8.60;;
61435;SDS011;47304;47.456;19.160;2024-01-11T10:39:09;17.60;;;8.60;;
61435;SDS011;47304;47.456;19.160;2024-01-11T10:41:39;15.10;;;8.10;;
61435;SDS011;47304;47.456;19.160;2024-01-11T10:44:14;15.40;;;9.00;;
61435;SDS011;47304;47.456;19.160;2024-01-11T10:46:45;16.90;;;9.60;;
61435;SDS011;47304;47.456;19.160;2024-01-11T10:49:16;17.00;;;9.80;;
61435;SDS011;47304;47.456;19.160;2024-01-11T10:51:49;19.10;;;9.80;;
61435;SDS011;47304;47.456;19.160;2024-01-11T10:54:25;14.40;;;9.20;;
61435;SDS011;47304;47.456;19.160;2024-01-11T10:56:54;16.10;;;10.10;;
61435;SDS011;47304;47.456;19.160;2024-01-11T10:59:24;17.30;;;9.30;;
61435;SDS011;47304;47.456;19.160;2024-01-11T11:01:53;17.20;;;9.80;;
61435;SDS011;47304;47.456;19.160;2024-01-11T11:04:23;16.60;;;9.80;;
61435;SDS011;47304;47.456;19.160;2024-01-11T11:06:54;19.10;;;10.50;;
61435;SDS011;47304;47.456;19.160;2024-01-11T11:09:23;15.20;;;9.70;;
61435;SDS011;47304;47.456;19.160;2024-01-11T11:11:51;16.30;;;9.90;;
61435;SDS011;47304;47.456;19.160;2024-01-11T11:14:22;13.90;;;9.40;;
61435;SDS011;47304;47.456;19.160;2024-01-11T11:16:50;14.80;;;10.30;;
61435;SDS011;47304;47.456;19.160;2024-01-11T11:19:20;18.10;;;11.50;;
61435;SDS011;47304;47.456;19.160;2024-01-11T11:21:48;18.00;;;12.10;;
61435;SDS011;47304;47.456;19.160;2024-01-11T11:24:17;19.10;;;12.60;;
61435;SDS011;47304;47.456;19.160;2024-01-11T11:26:46;15.20;;;11.10;;
61435;SDS011;47304;47.456;19.160;2024-01-11T11:29:14;16.30;;;12.00;;
61435;SDS011;47304;47.456;19.160;2024-01-11T11:31:43;15.80;;;11.30;;
61435;SDS011;47304;47.456;19.160;2024-01-11T11:34:12;16.80;;;11.50;;
61435;SDS011;47304;47.456;19.160;2024-01-11T11:36:40;18.80;;;12.50;;
61435;SDS011;47304;47.456;19.160;2024-01-11T11:39:13;16.00;;;12.10;;
61435;SDS011;47304;47.456;19.160;2024-01-11T11:41:41;19.50;;;13.50;;
61435;SDS011;47304;47.456;19.160;2024-01-11T11:44:11;22.60;;;16.40;;
61435;SDS011;47304;47.456;19.160;2024-01-11T11:46:39;21.30;;;15.00;;
61435;SDS011;47304;47.456;19.160;2024-01-11T11:49:08;21.50;;;15.50;;
61435;SDS011;47304;47.456;19.160;2024-01-11T11:51:36;19.90;;;13.20;;
61435;SDS011;47304;47.456;19.160;2024-01-11T11:54:06;21.70;;;15.70;;
61435;SDS011;47304;47.456;19.160;2024-01-11T11:56:36;18.70;;;13.60;;
61435;SDS011;47304;47.456;19.160;2024-01-11T11:59:04;18.60;;;13.60;;
61435;SDS011;47304;47.456;19.160;2024-01-11T12:01:34;23.70;;;16.90;;
61435;SDS011;47304;47.456;19.160;2024-01-11T12:04:03;22.50;;;16.70;;
61435;SDS011;47304;47.456;19.160;2024-01-11T12:06:34;22.30;;;17.50;;
61435;SDS011;47304;47.456;19.160;2024-01-11T12:09:03;19.80;;;15.10;;
61435;SDS011;47304;47.456;19.160;2024-01-11T12:11:31;17.80;;;13.90;;
61435;SDS011;47304;47.456;19.160;2024-01-11T12:13:59;17.50;;;12.70;;
61435;SDS011;47304;47.456;19.160;2024-01-11T12:16:28;16.20;;;12.40;;
61435;SDS011;47304;47.456;19.160;2024-01-11T12:18:56;17.30;;;13.80;;
61435;SDS011;47304;47.456;19.160;2024-01-11T12:21:24;24.60;;;13.20;;
61435;SDS011;47304;47.456;19.160;2024-01-11T12:23:52;18.60;;;13.30;;
61435;SDS011;47304;47.456;19.160;2024-01-11T12:26:21;18.00;;;13.40;;
61435;SDS011;47304;47.456;19.160;2024-01-11T12:28:49;16.70;;;12.80;;
61435;SDS011;47304;47.456;19.160;2024-01-11T12:31:18;17.20;;;13.90;;
61435;SDS011;47304;47.456;19.160;2024-01-11T12:33:47;16.60;;;12.40;;
61435;SDS011;47304;47.456;19.160;2024-01-11T12:36:16;18.90;;;13.40;;
61435;SDS011;47304;47.456;19.160;2024-01-11T12:38:47;19.10;;;13.60;;
61435;SDS011;47304;47.456;19.160;2024-01-11T12:41:15;18.30;;;13.10;;
61435;SDS011;47304;47.456;19.160;2024-01-11T12:43:44;22.70;;;15.00;;
61435;SDS011;47304;47.456;19.160;2024-01-11T12:46:12;19.60;;;14.10;;
61435;SDS011;47304;47.456;19.160;2024-01-11T12:48:41;32.70;;;23.60;;
61435;SDS011;47304;47.456;19.160;2024-01-11T12:51:09;20.40;;;14.60;;
61435;SDS011;47304;47.456;19.160;2024-01-11T12:53:38;25.90;;;19.40;;
61435;SDS011;47304;47.456;19.160;2024-01-11T12:56:06;20.30;;;13.10;;
61435;SDS011;47304;47.456;19.160;2024-01-11T12:58:35;17.90;;;11.40;;
61435;SDS011;47304;47.456;19.160;2024-01-11T13:01:04;19.80;;;11.90;;
61435;SDS011;47304;47.456;19.160;2024-01-11T13:03:32;23.60;;;13.50;;
61435;SDS011;47304;47.456;19.160;2024-01-11T13:06:00;24.20;;;14.60;;
61435;SDS011;47304;47.456;19.160;2024-01-11T13:08:29;28.70;;;14.70;;
61435;SDS011;47304;47.456;19.160;2024-01-11T13:10:57;23.10;;;13.70;;
61435;SDS011;47304;47.456;19.160;2024-01-11T13:13:25;22.20;;;12.00;;
61435;SDS011;47304;47.456;19.160;2024-01-11T13:15:54;24.80;;;14.40;;
61435;SDS011;47304;47.456;19.160;2024-01-11T13:18:22;23.50;;;12.70;;
61435;SDS011;47304;47.456;19.160;2024-01-11T13:20:50;24.20;;;13.10;;
61435;SDS011;47304;47.456;19.160;2024-01-11T13:23:19;21.70;;;11.60;;
61435;SDS011;47304;47.456;19.160;2024-01-11T13:25:47;24.00;;;13.20;;
61435;SDS011;47304;47.456;19.160;2024-01-11T13:28:17;22.00;;;12.20;;
61435;SDS011;47304;47.456;19.160;2024-01-11T13:30:45;22.60;;;12.50;;
61435;SDS011;47304;47.456;19.160;2024-01-11T13:33:14;23.60;;;12.50;;
61435;SDS011;47304;47.456;19.160;2024-01-11T13:35:42;25.20;;;12.10;;
61435;SDS011;47304;47.456;19.160;2024-01-11T13:38:12;21.90;;;11.20;;
61435;SDS011;47304;47.456;19.160;2024-01-11T13:40:40;24.10;;;12.20;;
61435;SDS011;47304;47.456;19.160;2024-01-11T13:43:09;22.00;;;10.50;;
61435;SDS011;47304;47.456;19.160;2024-01-11T13:45:37;23.00;;;11.90;;
61435;SDS011;47304;47.456;19.160;2024-01-11T13:48:06;19.90;;;10.10;;
61435;SDS011;47304;47.456;19.160;2024-01-11T13:50:34;17.30;;;8.60;;
61435;SDS011;47304;47.456;19.160;2024-01-11T13:53:02;21.20;;;10.80;;
61435;SDS011;47304;47.456;19.160;2024-01-11T13:55:31;23.50;;;11.70;;
61435;SDS011;47304;47.456;19.160;2024-01-11T13:57:59;17.20;;;8.70;;
61435;SDS011;47304;47.456;19.160;2024-01-11T14:00:27;20.40;;;9.90;;
61435;SDS011;47304;47.456;19.160;2024-01-11T14:02:55;20.10;;;9.20;;
61435;SDS011;47304;47.456;19.160;2024-01-11T14:05:23;17.20;;;8.10;;
61435;SDS011;47304;47.456;19.160;2024-01-11T14:07:52;20.80;;;9.10;;
61435;SDS011;47304;47.456;19.160;2024-01-11T14:10:20;16.30;;;7.90;;
61435;SDS011;47304;47.456;19.160;2024-01-11T14:12:48;19.10;;;9.50;;
61435;SDS011;47304;47.456;19.160;2024-01-11T14:15:16;18.10;;;9.30;;